Rook, Pennsylvania
Current Conditions -  °F | °C
As of 10:53 PM on Wednesday 26 Nov 2014 (Local Time) from KAGC Reporting Station
Haze Haze  
Wind Chill: 32°   Ceiling: 500
Heat Index: 32°   Visibility: 2mi
Dew Point: 29°   Wind: 3mph
Humidity: 88%   Direction: 270°W
Pressure: 29.98"   Gusts: NA
Location:  40.4193°N, 80.0502°W
Report Text: KAGC 270353Z 27003KT 2SM BR OVC005 00/M02 A2998 RMK AO2 SLP170 T00001017
Loading
Personal Weather Stations






























Interactive Weather Map New forecast layout! Learn more

10-Day Weather Forecast

Advertisements
Track Severe Weather on mobile